Time;durP1;ratioP1;P1;durP2;ratioP2;P2;SDS_P1;SDS_P2;PMS_P1;PMS_P2;Temp;Humidity;BMP_temperature;BMP_pressure;BME280_temperature;BME280_humidity;BME280_pressure;Samples;Min_cycle;Max_cycle;Signal;HPM_P1;HPM_P2
2022/07/18 00:02:23;;;;;;;3.55;1.58;;;;;;;;;;5070751;28;20075;-57
2022/07/18 00:04:49;;;;;;;3.50;1.90;;;;;;;;;;5071080;28;20090;-57
2022/07/18 00:07:15;;;;;;;3.97;1.80;;;;;;;;;;5069942;28;20036;-57
2022/07/18 00:09:42;;;;;;;6.38;2.70;;;;;;;;;;5069081;28;20102;-57
2022/07/18 00:12:11;;;;;;;3.53;1.88;;;;;;;;;;5071109;28;20090;-57
2022/07/18 00:14:37;;;;;;;3.58;1.60;;;;;;;;;;5071020;28;20509;-57
2022/07/18 00:17:04;;;;;;;2.92;1.55;;;;;;;;;;5070751;28;20047;-57
2022/07/18 00:19:30;;;;;;;4.90;1.65;;;;;;;;;;5078398;28;20054;-57
2022/07/18 00:21:56;;;;;;;4.38;1.90;;;;;;;;;;5084274;28;20044;-57
2022/07/18 00:24:22;;;;;;;4.10;1.70;;;;;;;;;;5069819;28;20063;-57
2022/07/18 00:26:48;;;;;;;3.28;1.77;;;;;;;;;;5079568;28;20488;-57
2022/07/18 00:29:14;;;;;;;3.38;1.65;;;;;;;;;;5073021;28;20048;-57
2022/07/18 00:31:40;;;;;;;4.65;2.00;;;;;;;;;;5070736;28;20041;-57
2022/07/18 00:34:06;;;;;;;3.53;1.70;;;;;;;;;;5070370;28;20052;-57
2022/07/18 00:36:32;;;;;;;2.90;1.60;;;;;;;;;;5075113;28;20705;-57
2022/07/18 00:38:58;;;;;;;3.28;1.50;;;;;;;;;;5072979;28;20052;-57
2022/07/18 00:41:25;;;;;;;3.95;1.63;;;;;;;;;;5075867;28;20047;-57
2022/07/18 00:43:51;;;;;;;3.78;1.70;;;;;;;;;;5075735;28;20047;-57
2022/07/18 00:46:21;;;;;;;3.97;1.60;;;;;;;;;;5077305;28;20051;-57
2022/07/18 00:48:47;;;;;;;4.78;1.70;;;;;;;;;;5077067;28;20044;-57
2022/07/18 00:51:14;;;;;;;2.20;1.45;;;;;;;;;;5074350;28;20040;-57
2022/07/18 00:53:40;;;;;;;3.25;1.60;;;;;;;;;;5080756;28;20059;-57
2022/07/18 00:56:06;;;;;;;2.50;1.60;;;;;;;;;;5071967;28;20044;-57
2022/07/18 00:58:32;;;;;;;3.42;1.67;;;;;;;;;;5077177;28;20043;-57
2022/07/18 01:03:43;;;;;;;3.47;1.67;;;;;;;;;;5070797;28;20063;-57
2022/07/18 01:06:09;;;;;;;2.88;1.60;;;;;;;;;;5068928;28;20032;-57
2022/07/18 01:08:37;;;;;;;3.25;1.50;;;;;;;;;;5071046;28;20040;-57
2022/07/18 01:11:03;;;;;;;2.65;1.67;;;;;;;;;;5078784;28;20043;-57
2022/07/18 01:13:29;;;;;;;3.53;1.42;;;;;;;;;;5078971;28;20047;-57
2022/07/18 01:15:55;;;;;;;3.13;1.58;;;;;;;;;;5068316;28;20428;-57
2022/07/18 01:18:21;;;;;;;3.70;1.77;;;;;;;;;;5070050;28;20394;-56
2022/07/18 01:20:47;;;;;;;3.72;1.67;;;;;;;;;;5078942;28;20136;-57
2022/07/18 01:23:13;;;;;;;2.47;1.45;;;;;;;;;;5082150;28;20098;-57
2022/07/18 01:25:40;;;;;;;3.42;1.50;;;;;;;;;;5069056;28;20048;-57
2022/07/18 01:28:06;;;;;;;4.05;1.73;;;;;;;;;;5085011;28;20079;-57
2022/07/18 01:30:32;;;;;;;3.22;1.70;;;;;;;;;;5069166;28;20373;-57
2022/07/18 01:32:59;;;;;;;3.65;1.60;;;;;;;;;;5070330;28;20072;-57
2022/07/18 01:35:25;;;;;;;3.20;1.40;;;;;;;;;;5080425;28;20448;-57
2022/07/18 01:37:52;;;;;;;3.08;1.50;;;;;;;;;;5079932;28;20119;-57
2022/07/18 01:40:19;;;;;;;3.53;1.70;;;;;;;;;;5070498;28;20059;-57
2022/07/18 01:42:45;;;;;;;3.60;1.77;;;;;;;;;;5077634;28;20079;-57
2022/07/18 01:45:11;;;;;;;3.30;1.75;;;;;;;;;;5075027;28;20048;-57
2022/07/18 01:47:37;;;;;;;3.38;1.65;;;;;;;;;;5069740;28;20047;-57
2022/07/18 01:50:03;;;;;;;3.40;1.38;;;;;;;;;;5070725;28;20165;-57
2022/07/18 01:52:29;;;;;;;3.63;1.38;;;;;;;;;;5079147;28;20051;-57
2022/07/18 01:54:56;;;;;;;2.35;1.42;;;;;;;;;;5069207;28;20517;-57
2022/07/18 01:57:23;;;;;;;3.22;1.58;;;;;;;;;;5069714;28;20047;-57
2022/07/18 01:59:49;;;;;;;4.22;1.58;;;;;;;;;;5085340;28;20107;-57
2022/07/18 02:02:15;;;;;;;2.78;1.58;;;;;;;;;;5078281;28;20044;-57
2022/07/18 02:04:59;;;;;;;4.13;1.90;;;;;;;;;;5078137;28;20053;-57
2022/07/18 02:07:36;;;;;;;3.03;1.50;;;;;;;;;;5083160;28;20450;-57
2022/07/18 02:10:02;;;;;;;;;;;;;;;;;;5078160;28;20040;-58
2022/07/18 02:12:28;;;;;;;1.95;1.23;;;;;;;;;;5083289;28;20345;-57
2022/07/18 02:14:54;;;;;;;3.90;1.70;;;;;;;;;;5073466;28;20036;-57
2022/07/18 02:17:20;;;;;;;4.32;1.80;;;;;;;;;;5084629;28;20123;-57
2022/07/18 02:19:46;;;;;;;2.90;1.60;;;;;;;;;;5072621;28;20119;-57
2022/07/18 02:22:12;;;;;;;3.35;1.75;;;;;;;;;;5072471;28;20044;-58
2022/07/18 02:24:38;;;;;;;2.85;1.40;;;;;;;;;;5073811;28;20070;-58
2022/07/18 02:27:04;;;;;;;2.88;1.60;;;;;;;;;;5086509;28;20111;-58
2022/07/18 02:29:31;;;;;;;2.83;1.60;;;;;;;;;;5075029;28;20041;-57
2022/07/18 02:31:57;;;;;;;2.83;1.33;;;;;;;;;;5072817;28;20093;-58
2022/07/18 02:34:23;;;;;;;4.05;1.65;;;;;;;;;;5078239;28;20090;-58
2022/07/18 02:36:50;;;;;;;4.13;1.70;;;;;;;;;;5073808;28;20076;-58
2022/07/18 02:39:17;;;;;;;3.20;1.83;;;;;;;;;;5074225;28;20037;-58
2022/07/18 02:41:43;;;;;;;3.65;1.60;;;;;;;;;;5090284;28;20496;-58
2022/07/18 02:44:09;;;;;;;3.60;1.75;;;;;;;;;;5072998;28;20477;-58
2022/07/18 02:46:36;;;;;;;4.05;1.45;;;;;;;;;;5072222;28;20072;-58
2022/07/18 02:49:02;;;;;;;3.10;1.63;;;;;;;;;;5072702;28;20048;-57
2022/07/18 02:51:28;;;;;;;2.58;1.58;;;;;;;;;;5071563;28;20076;-57
2022/07/18 02:53:54;;;;;;;2.97;1.60;;;;;;;;;;5071997;28;20119;-58
2022/07/18 02:56:20;;;;;;;3.30;1.58;;;;;;;;;;5078116;28;20099;-58
2022/07/18 02:58:46;;;;;;;3.22;1.55;;;;;;;;;;5074155;28;20091;-57
2022/07/18 03:01:12;;;;;;;3.55;1.70;;;;;;;;;;5072378;28;20052;-58
2022/07/18 03:03:39;;;;;;;2.95;1.48;;;;;;;;;;5071970;28;20094;-57
2022/07/18 03:06:05;;;;;;;4.22;1.63;;;;;;;;;;5071408;28;20094;-57
2022/07/18 03:08:31;;;;;;;4.53;1.77;;;;;;;;;;5070930;28;20124;-57
2022/07/18 03:10:57;;;;;;;3.17;1.65;;;;;;;;;;5079279;28;20040;-58
2022/07/18 03:13:23;;;;;;;3.33;1.65;;;;;;;;;;5076754;28;20055;-58
2022/07/18 03:15:49;;;;;;;2.88;1.55;;;;;;;;;;5071721;28;20119;-58
2022/07/18 03:18:15;;;;;;;3.35;1.50;;;;;;;;;;5072506;28;20119;-58
2022/07/18 03:20:41;;;;;;;3.45;1.58;;;;;;;;;;5070591;28;20044;-58
2022/07/18 03:23:08;;;;;;;2.88;1.48;;;;;;;;;;5073604;28;20052;-58
2022/07/18 03:25:34;;;;;;;3.10;1.40;;;;;;;;;;5089540;28;20488;-57
2022/07/18 03:28:00;;;;;;;2.47;1.45;;;;;;;;;;5092421;28;20044;-58
2022/07/18 03:30:26;;;;;;;3.35;1.38;;;;;;;;;;5092150;28;20044;-58
2022/07/18 03:32:52;;;;;;;4.13;1.80;;;;;;;;;;5091944;28;20224;-58
2022/07/18 03:35:18;;;;;;;2.50;1.50;;;;;;;;;;5091204;28;20481;-58
2022/07/18 03:37:45;;;;;;;3.72;1.77;;;;;;;;;;5091857;28;20040;-58
2022/07/18 03:40:11;;;;;;;3.15;1.50;;;;;;;;;;5090115;28;20055;-58
2022/07/18 03:42:38;;;;;;;2.95;1.40;;;;;;;;;;5072385;28;20056;-57
2022/07/18 03:45:05;;;;;;;2.90;1.70;;;;;;;;;;5071683;28;20036;-57
2022/07/18 03:47:31;;;;;;;2.70;1.80;;;;;;;;;;5071907;28;20102;-58
2022/07/18 03:49:57;;;;;;;4.03;1.90;;;;;;;;;;5070737;28;20041;-57
2022/07/18 03:52:23;;;;;;;2.33;1.33;;;;;;;;;;5077411;28;20079;-57
2022/07/18 03:54:49;;;;;;;3.65;1.75;;;;;;;;;;5077042;28;20392;-58
2022/07/18 03:57:15;;;;;;;2.83;1.55;;;;;;;;;;5071650;28;20044;-58
2022/07/18 03:59:41;;;;;;;2.63;1.33;;;;;;;;;;5086602;28;20055;-57
2022/07/18 04:02:07;;;;;;;2.97;1.63;;;;;;;;;;5091541;28;20055;-58
2022/07/18 04:04:33;;;;;;;3.67;1.63;;;;;;;;;;5091630;28;20051;-58
2022/07/18 04:07:00;;;;;;;2.60;1.42;;;;;;;;;;5085072;28;20032;-58
2022/07/18 04:09:26;;;;;;;3.58;1.63;;;;;;;;;;5070528;28;20040;-58
2022/07/18 04:11:52;;;;;;;2.60;1.90;;;;;;;;;;5087613;28;20048;-58
2022/07/18 04:14:18;;;;;;;2.95;1.52;;;;;;;;;;5090469;28;20044;-58
2022/07/18 04:16:44;;;;;;;2.22;1.33;;;;;;;;;;5090854;28;20044;-57
2022/07/18 04:19:11;;;;;;;3.17;1.55;;;;;;;;;;5091414;28;20165;-58
2022/07/18 04:21:37;;;;;;;4.13;2.17;;;;;;;;;;5090493;28;20421;-57
2022/07/18 04:24:03;;;;;;;3.15;1.63;;;;;;;;;;5090498;28;20048;-58
2022/07/18 04:26:29;;;;;;;3.13;1.67;;;;;;;;;;5091467;28;20040;-58
2022/07/18 04:28:55;;;;;;;2.40;1.33;;;;;;;;;;5084106;28;20043;-58
2022/07/18 04:31:21;;;;;;;3.17;1.35;;;;;;;;;;5090685;28;20038;-58
2022/07/18 04:33:47;;;;;;;3.50;1.55;;;;;;;;;;5077827;28;20067;-57
2022/07/18 04:36:13;;;;;;;2.70;1.58;;;;;;;;;;5090214;28;20044;-58
2022/07/18 04:38:39;;;;;;;2.75;1.52;;;;;;;;;;5090675;28;20047;-57
2022/07/18 04:41:06;;;;;;;3.42;1.50;;;;;;;;;;5083769;28;20051;-58
2022/07/18 04:43:32;;;;;;;3.35;1.40;;;;;;;;;;5071125;28;20048;-58
2022/07/18 04:45:58;;;;;;;3.70;1.75;;;;;;;;;;5070269;28;20988;-58
2022/07/18 04:48:24;;;;;;;2.50;1.58;;;;;;;;;;5072807;28;20075;-58
2022/07/18 04:50:50;;;;;;;2.45;1.20;;;;;;;;;;5069241;28;20046;-57
2022/07/18 04:53:17;;;;;;;2.70;1.30;;;;;;;;;;5070950;28;20133;-58
2022/07/18 04:55:43;;;;;;;4.13;1.70;;;;;;;;;;5073662;28;20044;-57
2022/07/18 04:58:09;;;;;;;3.03;1.70;;;;;;;;;;5091078;28;20071;-58
2022/07/18 05:00:36;;;;;;;2.53;1.33;;;;;;;;;;5089637;28;20126;-58
2022/07/18 05:03:02;;;;;;;2.72;1.30;;;;;;;;;;5090148;28;20192;-58
2022/07/18 05:05:28;;;;;;;2.80;1.35;;;;;;;;;;5089715;28;20044;-58
2022/07/18 05:07:55;;;;;;;3.83;1.58;;;;;;;;;;5090206;28;20477;-58
2022/07/18 05:10:22;;;;;;;2.65;1.25;;;;;;;;;;5079878;28;20044;-58
2022/07/18 05:12:49;;;;;;;2.45;1.20;;;;;;;;;;5069172;28;20044;-57
2022/07/18 05:15:16;;;;;;;1.63;1.02;;;;;;;;;;5069365;28;20128;-58
2022/07/18 05:17:43;;;;;;;4.32;1.50;;;;;;;;;;5070316;28;20098;-57
2022/07/18 05:20:10;;;;;;;3.65;1.77;;;;;;;;;;5069364;28;20076;-57
2022/07/18 05:22:37;;;;;;;2.95;1.65;;;;;;;;;;5070644;28;20123;-58
2022/07/18 05:25:04;;;;;;;2.22;1.42;;;;;;;;;;5075687;28;20136;-58
2022/07/18 05:27:30;;;;;;;3.65;1.63;;;;;;;;;;5057287;28;20527;-60
2022/07/18 05:29:58;;;;;;;2.47;1.42;;;;;;;;;;5053865;28;20040;-59
2022/07/18 05:32:25;;;;;;;2.60;1.27;;;;;;;;;;5069430;28;20086;-60
2022/07/18 05:34:51;;;;;;;4.05;1.55;;;;;;;;;;5069642;28;20078;-59
2022/07/18 05:37:17;;;;;;;2.60;1.35;;;;;;;;;;5069578;28;20470;-60
2022/07/18 05:39:43;;;;;;;2.95;1.60;;;;;;;;;;5069202;28;20044;-59
2022/07/18 05:42:09;;;;;;;1.95;1.20;;;;;;;;;;5082484;28;20051;-59
2022/07/18 05:44:35;;;;;;;2.70;1.50;;;;;;;;;;5094591;28;20047;-60
2022/07/18 05:47:01;;;;;;;1.67;1.13;;;;;;;;;;5093702;28;20079;-60
2022/07/18 05:49:27;;;;;;;2.53;1.48;;;;;;;;;;5094306;28;20048;-60
2022/07/18 05:51:53;;;;;;;2.13;1.30;;;;;;;;;;5082550;28;20715;-59
2022/07/18 05:54:19;;;;;;;3.70;1.80;;;;;;;;;;5073142;28;20508;-60
2022/07/18 05:56:47;;;;;;;2.33;1.35;;;;;;;;;;5073502;28;20127;-59
2022/07/18 05:59:13;;;;;;;1.73;1.27;;;;;;;;;;5076983;28;20047;-59
2022/07/18 06:01:39;;;;;;;2.47;1.20;;;;;;;;;;5094073;28;20091;-59
2022/07/18 06:04:05;;;;;;;2.17;1.27;;;;;;;;;;5093264;28;20123;-59
2022/07/18 06:06:31;;;;;;;1.83;1.33;;;;;;;;;;5088033;28;20477;-59
2022/07/18 06:08:57;;;;;;;1.85;1.30;;;;;;;;;;5072311;28;20838;-59
2022/07/18 06:11:23;;;;;;;2.50;1.60;;;;;;;;;;5088919;28;20059;-60
2022/07/18 06:13:50;;;;;;;2.70;1.40;;;;;;;;;;5080831;28;20119;-59
2022/07/18 06:16:16;;;;;;;2.13;1.30;;;;;;;;;;5090732;28;20120;-59
2022/07/18 06:18:42;;;;;;;3.13;1.40;;;;;;;;;;5093210;28;20063;-59
2022/07/18 06:21:08;;;;;;;3.05;1.67;;;;;;;;;;5091985;28;20036;-59
2022/07/18 06:23:35;;;;;;;2.30;1.30;;;;;;;;;;5093989;28;20050;-59
2022/07/18 06:26:01;;;;;;;3.00;1.42;;;;;;;;;;5092432;28;20092;-59
2022/07/18 06:28:30;;;;;;;2.47;1.30;;;;;;;;;;5093657;28;20051;-59
2022/07/18 06:30:56;;;;;;;3.38;1.50;;;;;;;;;;5092901;28;20143;-59
2022/07/18 06:33:22;;;;;;;2.92;1.88;;;;;;;;;;5093640;28;20678;-59
2022/07/18 06:35:49;;;;;;;3.10;1.40;;;;;;;;;;5086591;28;20032;-59
2022/07/18 06:38:15;;;;;;;2.42;1.27;;;;;;;;;;5084361;28;20075;-59
2022/07/18 06:40:42;;;;;;;3.55;1.50;;;;;;;;;;5091662;28;20051;-59
2022/07/18 06:43:08;;;;;;;3.45;1.65;;;;;;;;;;5092979;28;20047;-59
2022/07/18 06:45:34;;;;;;;3.00;1.45;;;;;;;;;;5093181;28;20040;-59
2022/07/18 06:48:00;;;;;;;3.08;1.38;;;;;;;;;;5092934;28;20036;-58
2022/07/18 06:50:26;;;;;;;2.85;1.33;;;;;;;;;;5092043;28;20123;-59
2022/07/18 06:52:52;;;;;;;2.45;1.30;;;;;;;;;;5092573;28;20040;-59
2022/07/18 06:55:18;;;;;;;2.30;1.17;;;;;;;;;;5091192;28;20048;-59
2022/07/18 06:57:45;;;;;;;1.55;1.00;;;;;;;;;;5087357;28;20581;-59
2022/07/18 07:00:13;;;;;;;2.60;1.15;;;;;;;;;;5071916;28;20168;-59
2022/07/18 07:02:46;;;;;;;3.45;1.25;;;;;;;;;;5072896;28;20135;-59
2022/07/18 07:05:13;;;;;;;2.85;1.55;;;;;;;;;;5071084;28;20474;-59
2022/07/18 07:07:39;;;;;;;2.42;1.40;;;;;;;;;;5072812;28;20485;-59
2022/07/18 07:10:06;;;;;;;2.17;1.20;;;;;;;;;;5072460;28;20041;-59
2022/07/18 07:12:38;;;;;;;2.92;1.38;;;;;;;;;;5092869;28;20389;-59
2022/07/18 07:15:04;;;;;;;3.33;1.48;;;;;;;;;;5092136;28;20036;-59
2022/07/18 07:17:30;;;;;;;2.80;1.50;;;;;;;;;;5089219;28;20075;-59
2022/07/18 07:19:56;;;;;;;2.38;1.38;;;;;;;;;;5077480;28;20045;-58
2022/07/18 07:22:22;;;;;;;2.20;1.40;;;;;;;;;;5071464;28;20083;-59
2022/07/18 07:24:49;;;;;;;2.97;1.45;;;;;;;;;;5074449;28;20432;-59
2022/07/18 07:27:15;;;;;;;3.28;1.40;;;;;;;;;;5075993;28;20071;-59
2022/07/18 07:29:41;;;;;;;2.88;1.35;;;;;;;;;;5084630;28;20071;-59
2022/07/18 07:32:07;;;;;;;2.45;1.25;;;;;;;;;;5084867;28;20123;-59
2022/07/18 07:34:33;;;;;;;2.47;1.20;;;;;;;;;;5088762;28;20048;-59
2022/07/18 07:36:59;;;;;;;3.47;1.10;;;;;;;;;;5074282;28;20052;-59
2022/07/18 07:39:25;;;;;;;2.40;1.25;;;;;;;;;;5078528;28;20065;-59
2022/07/18 07:41:51;;;;;;;2.13;1.30;;;;;;;;;;5079442;28;20647;-59
2022/07/18 07:44:17;;;;;;;3.15;1.38;;;;;;;;;;5087400;28;20063;-59
2022/07/18 07:46:44;;;;;;;3.30;1.30;;;;;;;;;;5079914;28;20040;-59
2022/07/18 07:49:10;;;;;;;2.30;1.27;;;;;;;;;;5087871;28;20414;-59
2022/07/18 07:51:36;;;;;;;2.53;1.10;;;;;;;;;;5087942;28;20036;-59
2022/07/18 07:54:03;;;;;;;2.08;1.10;;;;;;;;;;5070851;28;20583;-59
2022/07/18 07:56:29;;;;;;;1.13;0.90;;;;;;;;;;5084863;28;20768;-59
2022/07/18 07:58:55;;;;;;;2.65;1.30;;;;;;;;;;5073244;28;20517;-59
2022/07/18 08:01:21;;;;;;;2.25;1.40;;;;;;;;;;5081437;28;20056;-59
2022/07/18 08:03:48;;;;;;;2.75;1.10;;;;;;;;;;5071016;28;20047;-59
2022/07/18 08:06:14;;;;;;;2.30;1.20;;;;;;;;;;5080496;28;20064;-59
2022/07/18 08:08:41;;;;;;;2.05;0.95;;;;;;;;;;5070480;28;20379;-59
2022/07/18 08:11:07;;;;;;;1.65;1.00;;;;;;;;;;5082595;28;20043;-59
2022/07/18 08:13:33;;;;;;;2.13;1.13;;;;;;;;;;5085051;28;20469;-59
2022/07/18 08:15:59;;;;;;;3.00;1.40;;;;;;;;;;5072458;28;20037;-59
2022/07/18 08:18:25;;;;;;;2.20;1.15;;;;;;;;;;5070445;28;20546;-59
2022/07/18 08:20:51;;;;;;;2.33;1.20;;;;;;;;;;5074066;28;20047;-59
2022/07/18 08:23:17;;;;;;;2.33;1.40;;;;;;;;;;5078781;28;20125;-59
2022/07/18 08:25:44;;;;;;;3.08;1.35;;;;;;;;;;5071704;28;20055;-60
2022/07/18 08:28:10;;;;;;;1.70;1.20;;;;;;;;;;5074287;28;20051;-59
2022/07/18 08:30:37;;;;;;;1.95;1.02;;;;;;;;;;5076416;28;20084;-60
2022/07/18 08:33:03;;;;;;;4.78;1.35;;;;;;;;;;5069689;28;20570;-58
2022/07/18 08:35:31;;;;;;;3.28;1.30;;;;;;;;;;5076355;28;20048;-59
2022/07/18 08:37:57;;;;;;;5.75;1.58;;;;;;;;;;5070245;28;20114;-59
2022/07/18 08:40:24;;;;;;;2.10;1.23;;;;;;;;;;5083921;28;20060;-59
2022/07/18 08:42:53;;;;;;;1.27;1.02;;;;;;;;;;5079049;28;20523;-59
2022/07/18 08:45:23;;;;;;;1.35;1.10;;;;;;;;;;5089962;28;20167;-59
2022/07/18 08:47:50;;;;;;;1.90;1.10;;;;;;;;;;5075137;28;20028;-59
2022/07/18 08:50:16;;;;;;;3.58;1.30;;;;;;;;;;5075989;28;20040;-59
2022/07/18 08:52:42;;;;;;;2.50;1.27;;;;;;;;;;5068770;28;20693;-60
2022/07/18 08:55:08;;;;;;;2.10;0.98;;;;;;;;;;5073245;28;20087;-59
2022/07/18 08:57:34;;;;;;;2.47;1.20;;;;;;;;;;5072561;28;20645;-60
2022/07/18 09:00:02;;;;;;;2.72;1.17;;;;;;;;;;5073222;28;20052;-59
2022/07/18 09:02:28;;;;;;;3.45;1.35;;;;;;;;;;5077608;28;20090;-59
2022/07/18 09:04:55;;;;;;;2.15;1.20;;;;;;;;;;5079755;28;20043;-60
2022/07/18 09:07:27;;;;;;;1.65;1.00;;;;;;;;;;5071731;28;20690;-60
2022/07/18 09:09:54;;;;;;;4.45;1.20;;;;;;;;;;5073740;28;20076;-60
2022/07/18 09:12:21;;;;;;;2.17;1.42;;;;;;;;;;5080073;28;20112;-60
2022/07/18 09:14:47;;;;;;;2.50;1.20;;;;;;;;;;5069899;28;20527;-60
2022/07/18 09:17:16;;;;;;;3.17;1.20;;;;;;;;;;5073164;28;20058;-60
2022/07/18 09:19:55;;;;;;;3.70;1.13;;;;;;;;;;5071611;28;20527;-60
2022/07/18 09:22:23;;;;;;;4.15;1.25;;;;;;;;;;5083349;28;20036;-60
2022/07/18 09:24:50;;;;;;;2.22;1.17;;;;;;;;;;5087207;28;20052;-60
2022/07/18 09:27:24;;;;;;;1.52;1.08;;;;;;;;;;5080357;28;20044;-60
2022/07/18 09:30:08;;;;;;;3.38;1.33;;;;;;;;;;5075498;28;20069;-60
2022/07/18 09:32:34;;;;;;;1.85;1.05;;;;;;;;;;5082277;28;20040;-60
2022/07/18 09:35:06;;;;;;;1.73;0.98;;;;;;;;;;5076232;28;20064;-60
2022/07/18 09:37:33;;;;;;;1.65;1.13;;;;;;;;;;5072685;28;20124;-59
2022/07/18 09:40:16;;;;;;;2.47;1.00;;;;;;;;;;5075829;28;20520;-60
2022/07/18 09:42:42;;;;;;;1.33;0.98;;;;;;;;;;5073662;28;20115;-60
2022/07/18 09:45:08;;;;;;;3.47;1.15;;;;;;;;;;5078177;28;20047;-60
2022/07/18 09:47:54;;;;;;;2.95;1.05;;;;;;;;;;5080634;28;20051;-60
2022/07/18 09:50:24;;;;;;;1.38;0.80;;;;;;;;;;5080331;28;20040;-60
2022/07/18 09:53:19;;;;;;;1.60;0.98;;;;;;;;;;5077594;28;20075;-60
2022/07/18 09:55:50;;;;;;;1.40;1.10;;;;;;;;;;5076281;28;20048;-60
2022/07/18 09:58:17;;;;;;;4.00;1.50;;;;;;;;;;5086241;28;20043;-59
2022/07/18 10:00:44;;;;;;;2.28;0.93;;;;;;;;;;5080546;28;20474;-60
2022/07/18 10:03:10;;;;;;;1.70;0.90;;;;;;;;;;5073172;28;20124;-59
2022/07/18 10:05:37;;;;;;;2.20;1.25;;;;;;;;;;5072545;28;20040;-59
2022/07/18 10:08:05;;;;;;;2.83;1.02;;;;;;;;;;5073276;28;20529;-60
2022/07/18 10:10:31;;;;;;;1.42;1.00;;;;;;;;;;5072885;28;20041;-59
2022/07/18 10:12:58;;;;;;;1.27;1.08;;;;;;;;;;5082954;28;20048;-60
2022/07/18 10:15:26;;;;;;;2.97;1.50;;;;;;;;;;5077944;28;20503;-59
2022/07/18 10:17:52;;;;;;;1.23;0.95;;;;;;;;;;5073816;28;20045;-59
2022/07/18 10:20:24;;;;;;;2.83;1.23;;;;;;;;;;5071584;28;20036;-59
2022/07/18 10:22:51;;;;;;;2.42;1.17;;;;;;;;;;5076745;28;20036;-60
2022/07/18 10:25:21;;;;;;;4.97;1.15;;;;;;;;;;5082595;28;20041;-60
2022/07/18 10:27:52;;;;;;;2.70;1.10;;;;;;;;;;5072942;28;20071;-59
2022/07/18 10:30:29;;;;;;;2.92;1.20;;;;;;;;;;5077230;28;20478;-59
2022/07/18 10:32:55;;;;;;;4.05;1.45;;;;;;;;;;5084101;28;20551;-59
2022/07/18 10:35:41;;;;;;;4.45;1.55;;;;;;;;;;5085452;28;20040;-59
2022/07/18 10:38:22;;;;;;;3.42;1.33;;;;;;;;;;5082367;28;20494;-59
2022/07/18 10:41:04;;;;;;;3.67;1.30;;;;;;;;;;5080811;28;20037;-59
2022/07/18 10:43:30;;;;;;;10.57;1.20;;;;;;;;;;5071214;28;20048;-60
2022/07/18 10:45:57;;;;;;;2.83;1.10;;;;;;;;;;5082064;28;20519;-60
2022/07/18 10:48:35;;;;;;;2.20;1.08;;;;;;;;;;5074617;28;20048;-59
2022/07/18 10:51:06;;;;;;;4.10;1.40;;;;;;;;;;5071624;28;20033;-59
2022/07/18 10:53:56;;;;;;;2.88;1.13;;;;;;;;;;5073149;28;20040;-60
2022/07/18 10:56:28;;;;;;;2.47;1.17;;;;;;;;;;5081999;28;20048;-60
2022/07/18 10:58:58;;;;;;;5.13;1.30;;;;;;;;;;5085095;28;20044;-60
2022/07/18 11:01:25;;;;;;;1.95;1.10;;;;;;;;;;5072147;28;20048;-59
2022/07/18 11:04:11;;;;;;;1.67;1.15;;;;;;;;;;5085982;28;20515;-59
2022/07/18 11:07:00;;;;;;;1.50;1.20;;;;;;;;;;5087793;28;20040;-59
2022/07/18 11:09:32;;;;;;;3.50;1.38;;;;;;;;;;5077660;28;20048;-59
2022/07/18 11:12:17;;;;;;;5.03;1.20;;;;;;;;;;5072591;28;20086;-59
2022/07/18 11:15:02;;;;;;;3.40;1.45;;;;;;;;;;5077080;28;20074;-60
2022/07/18 11:17:51;;;;;;;4.38;1.50;;;;;;;;;;5077326;28;20040;-59
2022/07/18 11:20:36;;;;;;;1.65;1.10;;;;;;;;;;5080503;28;20470;-59
2022/07/18 11:23:04;;;;;;;2.28;1.40;;;;;;;;;;5082139;28;20036;-59
2022/07/18 11:25:31;;;;;;;1.05;0.90;;;;;;;;;;5092606;28;20135;-60
2022/07/18 11:27:57;;;;;;;5.20;1.17;;;;;;;;;;5081873;28;20068;-59
2022/07/18 11:30:24;;;;;;;2.65;1.10;;;;;;;;;;5070693;28;20619;-59
2022/07/18 11:32:51;;;;;;;2.13;1.00;;;;;;;;;;5071866;28;20044;-60
2022/07/18 11:35:23;;;;;;;1.88;1.17;;;;;;;;;;5070182;28;20041;-59
2022/07/18 11:37:51;;;;;;;3.33;1.40;;;;;;;;;;5071866;28;20049;-59
2022/07/18 11:40:17;;;;;;;4.97;1.45;;;;;;;;;;5068696;28;20124;-59
2022/07/18 11:42:43;;;;;;;2.40;1.38;;;;;;;;;;5083644;28;20564;-59
2022/07/18 11:45:12;;;;;;;3.30;1.17;;;;;;;;;;5076816;28;20074;-59
2022/07/18 11:47:40;;;;;;;2.42;1.27;;;;;;;;;;5082998;28;20047;-59
2022/07/18 11:50:06;;;;;;;2.38;1.50;;;;;;;;;;5071300;28;20040;-59
2022/07/18 11:52:33;;;;;;;3.47;1.23;;;;;;;;;;5071164;28;20177;-59
2022/07/18 11:55:03;;;;;;;2.35;1.13;;;;;;;;;;5070830;28;20064;-60
2022/07/18 11:57:30;;;;;;;2.15;1.20;;;;;;;;;;5071287;28;20051;-59
2022/07/18 11:59:56;;;;;;;1.73;1.20;;;;;;;;;;5071331;28;20049;-59
2022/07/18 12:02:41;;;;;;;2.65;1.30;;;;;;;;;;5069849;28;20048;-59
2022/07/18 12:05:08;;;;;;;1.73;0.90;;;;;;;;;;5070254;28;20040;-59
2022/07/18 12:07:34;;;;;;;4.10;1.40;;;;;;;;;;5072837;28;20040;-59
2022/07/18 12:10:15;;;;;;;2.60;1.08;;;;;;;;;;5077401;28;20044;-59
2022/07/18 12:12:42;;;;;;;10.55;1.98;;;;;;;;;;5080774;28;20127;-59
2022/07/18 12:15:08;;;;;;;3.30;1.33;;;;;;;;;;5084578;28;20055;-59
2022/07/18 12:17:43;;;;;;;3.53;1.30;;;;;;;;;;5087760;28;20297;-59
2022/07/18 12:20:11;;;;;;;2.17;1.23;;;;;;;;;;5080071;28;20089;-59
2022/07/18 12:22:37;;;;;;;3.53;1.30;;;;;;;;;;5079886;28;20052;-59
2022/07/18 12:25:04;;;;;;;1.48;1.08;;;;;;;;;;5082322;28;20786;-59
2022/07/18 12:27:30;;;;;;;3.97;1.10;;;;;;;;;;5082331;28;20602;-59
2022/07/18 12:30:03;;;;;;;3.03;1.50;;;;;;;;;;5087020;28;20036;-59
2022/07/18 12:32:46;;;;;;;3.28;1.33;;;;;;;;;;5079900;28;20044;-59
2022/07/18 12:35:12;;;;;;;2.08;1.17;;;;;;;;;;5078674;28;20039;-59
2022/07/18 12:37:38;;;;;;;3.03;1.35;;;;;;;;;;5086796;28;20122;-59
2022/07/18 12:40:13;;;;;;;2.40;1.40;;;;;;;;;;5077907;28;20040;-59
2022/07/18 12:42:40;;;;;;;4.60;1.40;;;;;;;;;;5078818;28;20048;-59
2022/07/18 12:45:07;;;;;;;1.45;1.00;;;;;;;;;;5085617;28;20127;-59
2022/07/18 12:47:34;;;;;;;2.35;1.35;;;;;;;;;;5082547;28;20071;-59
2022/07/18 12:50:00;;;;;;;2.88;1.35;;;;;;;;;;5079224;28;20375;-59
2022/07/18 12:52:26;;;;;;;3.58;1.48;;;;;;;;;;5077642;28;20037;-59
2022/07/18 12:54:52;;;;;;;1.10;0.93;;;;;;;;;;5077723;28;20381;-59
2022/07/18 12:57:19;;;;;;;3.00;1.20;;;;;;;;;;5079614;28;20036;-59
2022/07/18 12:59:45;;;;;;;1.90;1.00;;;;;;;;;;5069492;28;20482;-58
2022/07/18 13:02:13;;;;;;;3.75;1.23;;;;;;;;;;5070374;28;20068;-59
2022/07/18 13:04:39;;;;;;;1.85;1.27;;;;;;;;;;5069611;28;20091;-59
2022/07/18 13:07:05;;;;;;;2.75;1.67;;;;;;;;;;5069407;28;20055;-59
2022/07/18 13:09:31;;;;;;;2.20;1.02;;;;;;;;;;5069032;28;20036;-59
2022/07/18 13:11:59;;;;;;;2.38;1.20;;;;;;;;;;5072237;28;20047;-59
2022/07/18 13:14:25;;;;;;;1.40;1.02;;;;;;;;;;5074774;28;20067;-59
2022/07/18 13:16:52;;;;;;;1.05;0.88;;;;;;;;;;5069598;28;20669;-60
2022/07/18 13:19:19;;;;;;;3.53;1.40;;;;;;;;;;5071946;28;20120;-59
2022/07/18 13:21:46;;;;;;;2.38;1.10;;;;;;;;;;5071295;28;20266;-59
2022/07/18 13:24:12;;;;;;;2.70;1.45;;;;;;;;;;5068662;28;20041;-60
2022/07/18 13:26:39;;;;;;;1.85;1.10;;;;;;;;;;5069844;28;20533;-59
2022/07/18 13:29:05;;;;;;;3.72;1.60;;;;;;;;;;5070310;28;20047;-60
2022/07/18 13:31:31;;;;;;;2.90;1.73;;;;;;;;;;5069596;28;20033;-59
2022/07/18 13:33:57;;;;;;;2.65;1.40;;;;;;;;;;5070055;28;20119;-59
2022/07/18 13:36:23;;;;;;;1.05;0.88;;;;;;;;;;5070632;28;20053;-60
2022/07/18 13:38:50;;;;;;;2.33;1.38;;;;;;;;;;5068905;28;20072;-59
2022/07/18 13:41:16;;;;;;;3.00;1.40;;;;;;;;;;5069816;28;20060;-60
2022/07/18 13:43:42;;;;;;;4.45;1.75;;;;;;;;;;5069428;28;20152;-60
2022/07/18 13:46:09;;;;;;;3.92;1.33;;;;;;;;;;5069834;28;20385;-59
2022/07/18 13:48:35;;;;;;;2.65;1.33;;;;;;;;;;5079244;28;20789;-59
2022/07/18 13:51:01;;;;;;;3.25;1.40;;;;;;;;;;5071503;28;20044;-59
2022/07/18 13:53:27;;;;;;;4.40;1.60;;;;;;;;;;5070073;28;20359;-59
2022/07/18 13:55:53;;;;;;;2.53;1.02;;;;;;;;;;5068497;28;20080;-59
2022/07/18 13:58:19;;;;;;;2.20;1.10;;;;;;;;;;5082804;28;20047;-59
2022/07/18 14:00:45;;;;;;;2.83;1.38;;;;;;;;;;5068840;28;20059;-59
2022/07/18 14:03:12;;;;;;;4.55;1.20;;;;;;;;;;5070661;28;20049;-59
2022/07/18 14:05:38;;;;;;;3.17;1.35;;;;;;;;;;5072280;28;20048;-59
2022/07/18 14:08:05;;;;;;;3.78;1.20;;;;;;;;;;5073728;28;20040;-59
2022/07/18 14:10:31;;;;;;;2.00;1.30;;;;;;;;;;5078401;28;20036;-59
2022/07/18 14:12:58;;;;;;;2.28;1.20;;;;;;;;;;5073689;28;20052;-59
2022/07/18 14:15:24;;;;;;;2.60;1.10;;;;;;;;;;5075096;28;20047;-59
2022/07/18 14:17:50;;;;;;;2.25;1.08;;;;;;;;;;5072696;28;20135;-59
2022/07/18 14:20:16;;;;;;;2.28;1.30;;;;;;;;;;5071600;28;20048;-59
2022/07/18 14:22:43;;;;;;;3.40;1.20;;;;;;;;;;5072092;28;20045;-59
2022/07/18 14:25:11;;;;;;;3.05;1.50;;;;;;;;;;5071976;28;20106;-59
2022/07/18 14:27:37;;;;;;;2.33;1.23;;;;;;;;;;5074544;28;20705;-59
2022/07/18 14:30:04;;;;;;;2.47;1.13;;;;;;;;;;5077063;28;20052;-59
2022/07/18 14:32:30;;;;;;;3.78;1.42;;;;;;;;;;5072970;28;20123;-59
2022/07/18 14:34:56;;;;;;;2.80;1.45;;;;;;;;;;5072286;28;20432;-59
2022/07/18 14:37:22;;;;;;;2.30;1.23;;;;;;;;;;5072244;28;20048;-59
2022/07/18 14:39:48;;;;;;;2.28;1.10;;;;;;;;;;5077931;28;20059;-59
2022/07/18 14:42:14;;;;;;;1.98;1.20;;;;;;;;;;5076609;28;20040;-59
2022/07/18 14:44:40;;;;;;;2.28;1.10;;;;;;;;;;5072559;28;20041;-59
2022/07/18 14:47:06;;;;;;;1.90;1.20;;;;;;;;;;5073910;28;20048;-59
2022/07/18 14:49:33;;;;;;;2.45;1.40;;;;;;;;;;5086001;28;20131;-59